Time;durP1;ratioP1;P1;durP2;ratioP2;P2;SDS_P1;SDS_P2;PMS_P1;PMS_P2;Temp;Humidity;BMP_temperature;BMP_pressure;BME280_temperature;BME280_humidity;BME280_pressure;Samples;Min_cycle;Max_cycle;Signal;HPM_P1;HPM_P2
2022/04/23 00:00:18;;;;;;;20.83;12.40;;;;;204.60;224519.00;;;;5026738;28;20308;-72
2022/04/23 00:03:03;;;;;;;24.80;12.83;;;;;204.60;224519.00;;;;5022014;28;20365;-68
2022/04/23 00:05:50;;;;;;;19.20;11.67;;;;;204.60;224519.00;;;;5026581;28;20303;-71
2022/04/23 00:08:37;;;;;;;19.83;11.90;;;;;204.60;224519.00;;;;5027819;28;20229;-72
2022/04/23 00:11:23;;;;;;;23.17;12.30;;;;;204.60;224519.00;;;;5032482;28;20233;-71
2022/04/23 00:14:10;;;;;;;22.83;12.60;;;;;204.60;224519.00;;;;5028737;28;20237;-71
2022/04/23 00:16:57;;;;;;;23.03;12.83;;;;;204.60;224519.00;;;;5034071;28;20240;-71
2022/04/23 00:19:44;;;;;;;21.10;11.93;;;;;204.60;224519.00;;;;5039478;28;20233;-71
2022/04/23 00:22:30;;;;;;;22.93;12.17;;;;;204.60;224519.00;;;;5037620;28;20608;-72
2022/04/23 00:25:17;;;;;;;22.73;12.93;;;;;204.60;224519.00;;;;5046315;28;20604;-71
2022/04/23 00:28:04;;;;;;;21.60;11.50;;;;;204.60;224519.00;;;;5031530;28;20291;-69
2022/04/23 00:30:51;;;;;;;21.10;12.40;;;;;204.60;224519.00;;;;5042590;28;20391;-70
2022/04/23 00:33:38;;;;;;;23.53;13.27;;;;;204.60;224519.00;;;;5033339;28;20257;-71
2022/04/23 00:36:24;;;;;;;22.80;13.27;;;;;204.60;224519.00;;;;5025669;28;20248;-71
2022/04/23 00:39:10;;;;;;;22.70;12.93;;;;;204.60;224519.00;;;;5026555;28;20607;-71
2022/04/23 00:42:00;;;;;;;25.43;13.10;;;;;204.60;224519.00;;;;5030799;28;20232;-69
2022/04/23 00:44:46;;;;;;;22.70;12.03;;;;;204.60;224519.00;;;;5025683;28;20233;-70
2022/04/23 00:47:32;;;;;;;23.00;12.40;;;;;204.60;224519.00;;;;5025099;28;20240;-70
2022/04/23 00:50:21;;;;;;;21.53;11.80;;;;;204.60;224519.00;;;;5032014;28;20233;-70
2022/04/23 00:53:09;;;;;;;21.50;11.33;;;;;204.60;224519.00;;;;5015382;28;20237;-67
2022/04/23 00:55:55;;;;;;;24.87;13.53;;;;;204.60;224519.00;;;;5025594;28;20960;-70
2022/04/23 00:58:43;;;;;;;25.33;13.40;;;;;204.60;224519.00;;;;5033418;28;20363;-71
2022/04/23 01:01:29;;;;;;;21.20;11.77;;;;;204.60;224519.00;;;;5012726;28;20856;-70
2022/04/23 01:04:16;;;;;;;23.53;12.40;;;;;204.60;224519.00;;;;5036268;28;20230;-67
2022/04/23 01:07:04;;;;;;;24.53;12.20;;;;;204.60;224519.00;;;;5019745;28;20311;-72
2022/04/23 01:09:52;;;;;;;23.80;13.10;;;;;204.60;224519.00;;;;5024989;28;20236;-70
2022/04/23 01:12:39;;;;;;;24.00;12.40;;;;;204.60;224519.00;;;;5023392;28;20232;-71
2022/04/23 01:15:26;;;;;;;23.17;12.00;;;;;11.50;100028.00;;;;5040768;28;20623;-69
2022/04/23 01:18:14;;;;;;;23.70;13.00;;;;;11.50;100023.00;;;;5029616;28;20242;-72
2022/04/23 01:21:02;;;;;;;25.67;13.33;;;;;11.50;100026.00;;;;5037463;28;20232;-71
2022/04/23 01:23:52;;;;;;;25.23;12.93;;;;;11.40;100035.00;;;;5024928;28;20303;-72
2022/04/23 01:26:38;;;;;;;23.43;12.40;;;;;11.40;100031.00;;;;5012908;28;20298;-73
2022/04/23 01:29:24;;;;;;;22.60;12.87;;;;;11.40;100040.00;;;;5023668;28;20349;-71
2022/04/23 01:32:11;;;;;;;27.13;13.43;;;;;11.50;100037.00;;;;5011081;28;20728;-72
2022/04/23 01:34:57;;;;;;;22.73;12.57;;;;;11.40;100042.00;;;;5034804;28;20244;-72
2022/04/23 01:37:45;;;;;;;25.27;12.93;;;;;11.50;100049.00;;;;5030290;28;20248;-72
2022/04/23 01:40:31;;;;;;;21.63;12.10;;;;;11.50;100036.00;;;;5035676;28;20233;-70
2022/04/23 01:43:17;;;;;;;22.97;12.23;;;;;11.50;100033.00;;;;5024822;28;20237;-71
2022/04/23 01:46:04;;;;;;;25.03;12.90;;;;;11.50;99987.00;;;;5034892;28;20249;-70
2022/04/23 01:48:50;;;;;;;24.53;12.63;;;;;11.50;100028.00;;;;5016902;28;20316;-71
2022/04/23 01:51:36;;;;;;;22.43;12.53;;;;;11.40;100034.00;;;;5031470;28;20294;-71
2022/04/23 01:54:24;;;;;;;24.20;13.20;;;;;11.50;100027.00;;;;5024684;28;20607;-69
2022/04/23 01:57:10;;;;;;;24.37;12.97;;;;;11.40;100038.00;;;;5026974;28;20245;-69
2022/04/23 01:59:56;;;;;;;22.97;12.57;;;;;11.40;100031.00;;;;5014323;28;20237;-70
2022/04/23 02:02:43;;;;;;;25.33;12.77;;;;;11.50;100036.00;;;;5025563;28;20606;-70
2022/04/23 02:05:29;;;;;;;21.67;12.53;;;;;11.40;100023.00;;;;5027644;28;20314;-70
2022/04/23 02:08:17;;;;;;;21.23;12.23;;;;;11.50;100018.00;;;;5044193;28;20236;-70
2022/04/23 02:11:04;;;;;;;22.73;12.40;;;;;11.30;100029.00;;;;5024505;28;20291;-69
2022/04/23 02:13:51;;;;;;;22.10;12.70;;;;;11.40;100020.00;;;;5024071;28;20245;-72
2022/04/23 02:16:39;;;;;;;24.70;13.60;;;;;11.30;100001.00;;;;5019427;28;20229;-70
2022/04/23 02:19:25;;;;;;;18.73;11.90;;;;;11.30;100016.00;;;;5035669;28;20376;-70
2022/04/23 02:22:11;;;;;;;23.17;11.73;;;;;11.30;100016.00;;;;5024671;28;20250;-72
2022/04/23 02:24:58;;;;;;;22.63;12.17;;;;;11.20;100014.00;;;;5025385;28;20237;-72
2022/04/23 02:27:47;;;;;;;21.93;12.07;;;;;11.20;100020.00;;;;5024601;28;20236;-71
2022/04/23 02:30:33;;;;;;;23.23;12.13;;;;;11.20;100011.00;;;;5024561;28;20329;-72
2022/04/23 02:33:20;;;;;;;20.57;11.67;;;;;11.20;100014.00;;;;5024812;28;20233;-72
2022/04/23 02:36:07;;;;;;;26.13;13.23;;;;;11.20;100009.00;;;;5024821;28;20237;-71
2022/04/23 02:38:54;;;;;;;24.23;11.80;;;;;11.20;100013.00;;;;5029692;28;20364;-71
2022/04/23 02:41:40;;;;;;;21.03;11.67;;;;;11.20;100015.00;;;;5024527;28;20235;-72
2022/04/23 02:44:28;;;;;;;21.73;12.37;;;;;11.20;100014.00;;;;5027382;28;20368;-71
2022/04/23 02:47:14;;;;;;;26.57;12.83;;;;;11.10;100016.00;;;;5036137;28;20588;-72
2022/04/23 02:50:00;;;;;;;22.90;12.43;;;;;11.10;100025.00;;;;5025908;28;20265;-71
2022/04/23 02:52:47;;;;;;;21.33;12.53;;;;;11.10;100023.00;;;;5032930;28;20228;-72
2022/04/23 02:55:34;;;;;;;23.23;11.73;;;;;11.10;100029.00;;;;5038987;28;20228;-71
2022/04/23 02:58:21;;;;;;;21.50;12.23;;;;;11.10;100014.00;;;;5019030;28;20243;-72
2022/04/23 03:01:10;;;;;;;21.53;11.60;;;;;11.10;100019.00;;;;5027781;28;20236;-70
2022/04/23 03:03:58;;;;;;;23.00;12.30;;;;;11.00;100027.00;;;;5027588;28;20327;-71
2022/04/23 03:06:45;;;;;;;20.77;12.70;;;;;11.10;100019.00;;;;5035415;28;20236;-72
2022/04/23 03:09:31;;;;;;;20.17;11.63;;;;;11.00;100023.00;;;;5038192;28;21079;-71
2022/04/23 03:12:17;;;;;;;21.87;12.20;;;;;11.00;100015.00;;;;5027541;28;20801;-71
2022/04/23 03:15:04;;;;;;;22.50;11.87;;;;;11.10;100023.00;;;;5027504;28;20345;-71
2022/04/23 03:18:02;;;;;;;20.47;11.67;;;;;11.00;100016.00;;;;5036736;28;20237;-71
2022/04/23 03:20:49;;;;;;;24.37;12.60;;;;;11.00;100018.00;;;;5046923;28;20232;-71
2022/04/23 03:23:35;;;;;;;23.67;12.63;;;;;11.00;100022.00;;;;5028149;28;20323;-70
2022/04/23 03:26:21;;;;;;;22.97;12.30;;;;;11.10;100020.00;;;;5039428;28;20808;-71
2022/04/23 03:29:07;;;;;;;20.93;12.17;;;;;11.00;100010.00;;;;5032692;28;20240;-70
2022/04/23 03:31:54;;;;;;;20.67;11.90;;;;;11.00;100020.00;;;;5039372;28;20232;-70
2022/04/23 03:34:41;;;;;;;24.10;13.03;;;;;11.20;100016.00;;;;5047293;28;20282;-71
2022/04/23 03:37:28;;;;;;;22.43;12.83;;;;;11.00;100015.00;;;;5035718;28;20327;-70
2022/04/23 03:40:14;;;;;;;24.00;12.43;;;;;11.00;100011.00;;;;5041939;28;20283;-71
2022/04/23 03:43:00;;;;;;;24.43;13.27;;;;;11.10;100008.00;;;;5026892;28;20237;-71
2022/04/23 03:45:47;;;;;;;20.50;11.80;;;;;11.20;100008.00;;;;5026391;28;20257;-70
2022/04/23 03:48:34;;;;;;;23.73;12.63;;;;;11.20;100010.00;;;;5018203;28;20234;-70
2022/04/23 03:51:21;;;;;;;22.90;12.20;;;;;11.20;100008.00;;;;5026927;28;20233;-70
2022/04/23 03:54:08;;;;;;;21.97;11.90;;;;;11.20;100008.00;;;;5034480;28;20318;-71
2022/04/23 03:56:54;;;;;;;21.33;12.13;;;;;11.30;100003.00;;;;5026535;28;20232;-71
2022/04/23 03:59:40;;;;;;;24.37;12.97;;;;;11.20;100012.00;;;;5026521;28;20610;-71
2022/04/23 04:02:27;;;;;;;23.27;13.03;;;;;11.30;100011.00;;;;5030625;28;20768;-69
2022/04/23 04:05:14;;;;;;;22.13;12.87;;;;;11.30;100009.00;;;;5046569;28;20359;-73
2022/04/23 04:08:01;;;;;;;23.80;12.93;;;;;11.40;100003.00;;;;5010717;28;20234;-72
2022/04/23 04:10:48;;;;;;;21.33;11.23;;;;;11.50;100002.00;;;;5037118;28;20233;-72
2022/04/23 04:13:35;;;;;;;21.10;11.67;;;;;11.60;100008.00;;;;5034836;28;20237;-70
2022/04/23 04:16:23;;;;;;;19.80;11.03;;;;;11.50;100000.00;;;;5013997;28;20622;-72
2022/04/23 04:19:09;;;;;;;21.40;11.93;;;;;11.50;100014.00;;;;5033772;28;20323;-71
2022/04/23 04:21:56;;;;;;;19.43;11.80;;;;;11.40;100012.00;;;;5026385;28;20232;-71
2022/04/23 04:24:44;;;;;;;23.97;12.80;;;;;11.70;100010.00;;;;5026279;28;20307;-71
2022/04/23 04:27:30;;;;;;;21.03;11.50;;;;;11.60;100009.00;;;;5025474;28;20356;-68
2022/04/23 04:30:17;;;;;;;24.10;11.30;;;;;11.60;100007.00;;;;5009388;28;20312;-72
2022/04/23 04:33:09;;;;;;;21.60;11.70;;;;;11.70;100008.00;;;;5013942;28;20232;-70
2022/04/23 04:35:56;;;;;;;20.73;11.77;;;;;11.60;100004.00;;;;5032250;28;20229;-70
2022/04/23 04:38:42;;;;;;;21.43;11.67;;;;;11.70;100005.00;;;;5034740;28;20288;-71
2022/04/23 04:41:31;;;;;;;21.17;11.67;;;;;11.60;99999.00;;;;5025423;28;20234;-70
2022/04/23 04:44:17;;;;;;;19.97;11.50;;;;;11.60;99998.00;;;;5031445;28;20229;-70
2022/04/23 04:47:04;;;;;;;25.60;12.27;;;;;11.70;100004.00;;;;5025646;28;20679;-71
2022/04/23 04:49:50;;;;;;;22.10;12.20;;;;;11.70;99999.00;;;;5035248;28;20650;-71
2022/04/23 04:52:37;;;;;;;21.07;11.73;;;;;11.70;100000.00;;;;5044223;28;20727;-72
2022/04/23 04:55:23;;;;;;;19.30;12.13;;;;;11.80;100002.00;;;;5025691;28;20240;-71
2022/04/23 04:58:11;;;;;;;24.80;12.70;;;;;11.80;99989.00;;;;5025744;28;20764;-71
2022/04/23 05:00:57;;;;;;;21.57;11.00;;;;;11.90;99994.00;;;;5037601;28;20371;-70
2022/04/23 05:03:43;;;;;;;24.23;12.70;;;;;11.80;99999.00;;;;5044491;28;20323;-67
2022/04/23 05:06:30;;;;;;;25.03;12.83;;;;;11.80;99996.00;;;;5036322;28;20279;-73
2022/04/23 05:09:16;;;;;;;25.80;12.80;;;;;11.90;100000.00;;;;5018510;28;20609;-70
2022/04/23 05:12:03;;;;;;;23.17;12.67;;;;;11.90;99998.00;;;;5025576;28;20288;-72
2022/04/23 05:14:51;;;;;;;23.40;12.07;;;;;11.80;99995.00;;;;5025243;28;20600;-70
2022/04/23 05:17:38;;;;;;;22.07;11.77;;;;;11.80;100006.00;;;;5026088;28;20260;-69
2022/04/23 05:20:25;;;;;;;22.70;12.03;;;;;11.70;99995.00;;;;5028953;28;20261;-71
2022/04/23 05:23:11;;;;;;;25.40;11.37;;;;;11.70;100002.00;;;;5025524;28;20233;-70
2022/04/23 05:25:58;;;;;;;22.63;12.07;;;;;11.80;100005.00;;;;5029413;28;20304;-72
2022/04/23 05:28:44;;;;;;;23.47;11.93;;;;;11.70;100013.00;;;;5031247;28;20237;-71
2022/04/23 05:31:33;;;;;;;21.03;11.37;;;;;11.60;100006.00;;;;5025473;28;20229;-69
2022/04/23 05:34:19;;;;;;;22.43;12.23;;;;;11.70;100009.00;;;;5029550;28;20232;-72
2022/04/23 05:37:06;;;;;;;24.27;12.60;;;;;11.80;100015.00;;;;5027504;28;20303;-70
2022/04/23 05:39:53;;;;;;;22.63;12.07;;;;;11.80;100011.00;;;;5024609;28;20256;-68
2022/04/23 05:42:40;;;;;;;23.43;12.67;;;;;11.70;100000.00;;;;5034890;28;20236;-70
2022/04/23 05:45:26;;;;;;;24.80;12.63;;;;;11.80;100007.00;;;;5044585;28;20267;-68
2022/04/23 05:48:14;;;;;;;21.50;11.63;;;;;11.70;99999.00;;;;5017667;28;20745;-70
2022/04/23 05:51:00;;;;;;;22.53;12.90;;;;;11.80;100003.00;;;;5044322;28;20311;-70
2022/04/23 05:53:47;;;;;;;22.80;12.33;;;;;11.80;100017.00;;;;5044014;28;20610;-68
2022/04/23 05:56:33;;;;;;;20.93;11.97;;;;;11.90;100026.00;;;;5044339;28;20848;-70
2022/04/23 05:59:19;;;;;;;21.77;12.07;;;;;11.90;100010.00;;;;5044292;28;20303;-71
2022/04/23 06:02:06;;;;;;;25.57;13.00;;;;;12.10;100022.00;;;;5028879;28;20229;-70
2022/04/23 06:04:58;;;;;;;25.20;12.67;;;;;12.00;100018.00;;;;5036817;28;20244;-70
2022/04/23 06:07:44;;;;;;;24.53;12.40;;;;;12.10;100023.00;;;;5025115;28;20640;-71
2022/04/23 06:10:30;;;;;;;21.03;12.63;;;;;12.20;100014.00;;;;5040884;28;20333;-71
2022/04/23 06:13:16;;;;;;;28.87;13.53;;;;;12.20;100003.00;;;;5044392;28;20263;-71
2022/04/23 06:16:03;;;;;;;21.80;12.33;;;;;12.30;100014.00;;;;5024381;28;20283;-71
2022/04/23 06:18:48;;;;;;;25.17;12.83;;;;;12.30;100019.00;;;;5036742;28;20251;-71
2022/04/23 06:21:36;;;;;;;23.93;13.07;;;;;12.40;100013.00;;;;5028345;28;20240;-70
2022/04/23 06:24:22;;;;;;;27.83;13.43;;;;;12.40;100012.00;;;;5027882;28;20885;-70
2022/04/23 06:27:09;;;;;;;28.10;14.00;;;;;12.40;100017.00;;;;5032909;28;20229;-69
2022/04/23 06:29:56;;;;;;;27.37;13.30;;;;;12.50;100009.00;;;;5028157;28;20283;-70
2022/04/23 06:32:43;;;;;;;22.83;12.97;;;;;12.50;100024.00;;;;5030180;28;20236;-69
2022/04/23 06:35:30;;;;;;;27.80;14.47;;;;;12.60;100022.00;;;;5015528;28;20237;-69
2022/04/23 06:38:17;;;;;;;27.67;14.07;;;;;12.70;100004.00;;;;5035921;28;20240;-70
2022/04/23 06:41:03;;;;;;;26.87;13.80;;;;;12.60;100016.00;;;;5017558;28;20241;-70
2022/04/23 06:43:51;;;;;;;31.17;15.57;;;;;12.70;100010.00;;;;5027923;28;20234;-70
2022/04/23 06:46:38;;;;;;;25.53;13.00;;;;;12.80;100022.00;;;;5037445;28;20231;-70
2022/04/23 06:49:27;;;;;;;29.00;14.77;;;;;12.90;100017.00;;;;5041419;28;20241;-69
2022/04/23 06:52:13;;;;;;;27.73;14.20;;;;;13.00;99989.00;;;;5021202;28;20233;-72
2022/04/23 06:55:01;;;;;;;25.83;13.60;;;;;13.00;100005.00;;;;5033312;28;20906;-72
2022/04/23 06:57:49;;;;;;;33.50;16.67;;;;;13.10;100012.00;;;;5024735;28;20236;-69
2022/04/23 07:00:38;;;;;;;28.03;14.43;;;;;13.10;100007.00;;;;5030110;28;20245;-70
2022/04/23 07:03:24;;;;;;;26.53;14.87;;;;;13.20;100014.00;;;;5035010;28;20228;-68
2022/04/23 07:06:11;;;;;;;30.10;15.53;;;;;13.30;100012.00;;;;5029959;28;20867;-69
2022/04/23 07:08:57;;;;;;;32.63;16.07;;;;;13.30;100006.00;;;;5031723;28;20312;-69
2022/04/23 07:11:45;;;;;;;30.97;14.97;;;;;13.30;100013.00;;;;5047468;28;20352;-69
2022/04/23 07:14:32;;;;;;;30.13;14.40;;;;;13.40;100005.00;;;;5047126;28;20235;-69
2022/04/23 07:17:25;;;;;;;28.63;14.80;;;;;13.40;100025.00;;;;5047214;28;20725;-71
2022/04/23 07:20:12;;;;;;;32.50;15.60;;;;;13.50;100014.00;;;;5046377;28;20240;-68
2022/04/23 07:26:02;;;;;;;30.87;14.33;;;;;13.60;100018.00;;;;5012413;28;20357;-71
2022/04/23 07:28:50;;;;;;;28.43;14.60;;;;;13.70;100011.00;;;;5015681;28;20729;-66
2022/04/23 07:31:37;;;;;;;27.33;14.00;;;;;13.80;100018.00;;;;5029575;28;20233;-69
2022/04/23 07:37:31;;;;;;;25.43;13.57;;;;;14.00;100007.00;;;;5043711;28;20228;-70
2022/04/23 07:40:17;;;;;;;25.03;13.33;;;;;14.00;100017.00;;;;5027399;28;20242;-69
2022/04/23 07:43:04;;;;;;;32.03;14.80;;;;;14.00;100016.00;;;;5029687;28;20286;-70
2022/04/23 07:45:52;;;;;;;27.23;14.77;;;;;14.10;100012.00;;;;5026856;28;20226;-72
2022/04/23 07:48:38;;;;;;;31.13;14.50;;;;;14.20;100022.00;;;;5026769;28;20234;-70
2022/04/23 07:51:27;;;;;;;27.00;13.30;;;;;14.10;100014.00;;;;5030654;28;20312;-70
2022/04/23 07:54:19;;;;;;;26.10;14.57;;;;;14.30;100013.00;;;;5028997;28;20356;-67
2022/04/23 07:57:07;;;;;;;28.47;14.60;;;;;14.40;100023.00;;;;5042298;28;20380;-70
2022/04/23 07:59:55;;;;;;;28.03;13.77;;;;;14.40;100020.00;;;;5046277;28;20746;-70
2022/04/23 08:02:43;;;;;;;27.00;14.10;;;;;14.40;100020.00;;;;5041775;28;20605;-70
2022/04/23 08:05:29;;;;;;;27.67;14.20;;;;;14.30;100024.00;;;;5043560;28;20315;-71
2022/04/23 08:08:17;;;;;;;25.97;13.77;;;;;14.40;100004.00;;;;5025897;28;20710;-70
2022/04/23 08:11:03;;;;;;;32.43;14.53;;;;;14.40;100019.00;;;;5015534;28;20336;-70
2022/04/23 08:13:50;;;;;;;26.87;13.73;;;;;14.40;100015.00;;;;5034819;28;20301;-71
2022/04/23 08:16:37;;;;;;;28.27;14.10;;;;;14.50;100013.00;;;;5026072;28;20279;-71
2022/04/23 08:19:25;;;;;;;29.13;14.87;;;;;14.60;100011.00;;;;5041505;28;20252;-70
2022/04/23 08:22:11;;;;;;;26.57;13.20;;;;;14.80;100010.00;;;;5026159;28;20292;-70
2022/04/23 08:24:57;;;;;;;27.60;13.87;;;;;14.80;100006.00;;;;5026467;28;20347;-72
2022/04/23 08:27:48;;;;;;;25.30;13.73;;;;;14.90;100007.00;;;;5045850;28;20238;-72
2022/04/23 08:30:36;;;;;;;24.23;12.63;;;;;14.70;100011.00;;;;5036666;28;20386;-70
2022/04/23 08:33:22;;;;;;;23.97;12.93;;;;;14.90;100010.00;;;;5013717;28;20230;-70
2022/04/23 08:36:10;;;;;;;28.67;14.43;;;;;15.20;100006.00;;;;5025849;28;20229;-70
2022/04/23 08:38:57;;;;;;;23.90;12.90;;;;;15.30;100007.00;;;;5031544;28;20308;-71
2022/04/23 08:41:46;;;;;;;25.10;13.23;;;;;15.60;100007.00;;;;5025574;28;20872;-71
2022/04/23 08:44:32;;;;;;;29.03;13.70;;;;;15.40;100011.00;;;;5028454;28;20230;-69
2022/04/23 08:47:23;;;;;;;25.00;12.80;;;;;15.40;99994.00;;;;5032702;28;20659;-71
2022/04/23 08:50:09;;;;;;;30.50;14.20;;;;;15.80;100007.00;;;;5032552;28;20723;-71
2022/04/23 08:53:00;;;;;;;25.93;13.73;;;;;16.00;100020.00;;;;5025585;28;20235;-70
2022/04/23 08:55:47;;;;;;;26.07;12.83;;;;;16.10;100007.00;;;;5025335;28;20236;-71
2022/04/23 08:58:34;;;;;;;25.00;13.30;;;;;16.20;100014.00;;;;5027664;28;20375;-72
2022/04/23 09:01:22;;;;;;;23.20;12.03;;;;;16.30;100008.00;;;;5028839;28;20655;-70
2022/04/23 09:04:09;;;;;;;26.20;12.93;;;;;16.50;100005.00;;;;5014305;28;20236;-70
2022/04/23 09:06:56;;;;;;;23.10;12.23;;;;;16.60;99998.00;;;;5023172;28;20814;-67
2022/04/23 09:09:48;;;;;;;24.80;12.03;;;;;16.70;99992.00;;;;5025303;28;20234;-71
2022/04/23 09:12:34;;;;;;;23.27;12.30;;;;;16.70;100000.00;;;;5024941;28;20230;-71
2022/04/23 09:24:46;;;;;;;22.00;11.50;;;;;16.80;99990.00;;;;5015295;28;20233;-71
2022/04/23 09:27:34;;;;;;;26.97;12.53;;;;;16.80;99994.00;;;;5026951;28;20232;-72
2022/04/23 09:30:20;;;;;;;25.30;13.20;;;;;16.80;99985.00;;;;5025001;28;20239;-71
2022/04/23 09:33:06;;;;;;;22.00;12.40;;;;;16.90;99990.00;;;;5014483;28;20631;-72
2022/04/23 09:35:57;;;;;;;22.70;12.13;;;;;17.00;99979.00;;;;5024812;28;20390;-72
2022/04/23 09:38:43;;;;;;;27.13;12.47;;;;;17.00;99991.00;;;;5031039;28;20237;-69
2022/04/23 09:41:36;;;;;;;21.57;12.03;;;;;17.00;100000.00;;;;5024718;28;20784;-69
2022/04/23 09:44:28;;;;;;;21.83;13.20;;;;;17.10;100003.00;;;;5024946;28;20729;-72
2022/04/23 09:47:29;;;;;;;23.07;12.47;;;;;17.40;99989.00;;;;5023330;28;20606;-71
2022/04/23 09:50:16;;;;;;;28.97;13.80;;;;;17.40;99991.00;;;;5030611;28;20258;-72
2022/04/23 09:53:09;;;;;;;22.87;12.47;;;;;17.60;100003.00;;;;5036743;28;20232;-72
2022/04/23 09:55:59;;;;;;;26.47;12.93;;;;;17.80;99996.00;;;;5024809;28;20249;-69
2022/04/23 09:58:47;;;;;;;25.87;12.83;;;;;17.70;100000.00;;;;5024854;28;20641;-72
2022/04/23 10:01:35;;;;;;;28.20;13.77;;;;;17.90;99988.00;;;;5029473;28;20688;-70
2022/04/23 10:04:24;;;;;;;24.40;12.20;;;;;18.20;99990.00;;;;5030988;28;20299;-70
2022/04/23 10:07:11;;;;;;;23.27;12.37;;;;;18.00;99991.00;;;;5032809;28;20688;-70
2022/04/23 10:10:02;;;;;;;24.83;12.40;;;;;18.00;99990.00;;;;5044737;28;20366;-71
2022/04/23 10:12:50;;;;;;;25.40;12.80;;;;;18.20;100004.00;;;;5041779;28;20364;-68
2022/04/23 10:15:39;;;;;;;27.10;12.83;;;;;18.40;99999.00;;;;5024902;28;20232;-70
2022/04/23 10:18:25;;;;;;;25.13;11.90;;;;;18.40;99993.00;;;;5019259;28;20240;-70
2022/04/23 10:21:18;;;;;;;25.73;13.07;;;;;18.30;99994.00;;;;5022931;28;20229;-70
2022/04/23 10:24:10;;;;;;;30.20;13.23;;;;;18.30;99983.00;;;;5031664;28;20224;-71
2022/04/23 10:27:06;;;;;;;23.93;13.33;;;;;18.50;99986.00;;;;5029120;28;20801;-71
2022/04/23 10:29:55;;;;;;;22.43;12.37;;;;;18.60;99990.00;;;;5024030;28;20237;-70
2022/04/23 10:32:43;;;;;;;25.93;13.07;;;;;18.70;99994.00;;;;5024759;28;20229;-71
2022/04/23 10:35:34;;;;;;;24.00;12.17;;;;;18.80;99998.00;;;;5022638;28;20280;-71
2022/04/23 10:38:20;;;;;;;22.40;12.07;;;;;19.10;100002.00;;;;5036724;28;20604;-70
2022/04/23 10:41:08;;;;;;;22.23;12.47;;;;;19.00;99993.00;;;;5013154;28;20310;-71
2022/04/23 10:44:02;;;;;;;23.47;12.10;;;;;19.20;99993.00;;;;5033451;28;20327;-71
2022/04/23 10:46:50;;;;;;;24.47;13.07;;;;;19.40;100008.00;;;;5035286;28;20855;-71
2022/04/23 10:49:37;;;;;;;25.60;13.67;;;;;19.00;100003.00;;;;5035960;28;20377;-71
2022/04/23 10:52:35;;;;;;;22.20;12.33;;;;;18.40;99998.00;;;;5024211;28;20288;-68
2022/04/23 10:55:22;;;;;;;21.83;12.70;;;;;18.50;99987.00;;;;5024969;28;20299;-72
2022/04/23 10:58:22;;;;;;;26.90;13.77;;;;;18.60;99984.00;;;;5024020;28;20925;-71
2022/04/23 11:01:28;;;;;;;22.00;12.97;;;;;19.30;99987.00;;;;5025986;28;20233;-72
2022/04/23 11:04:22;;;;;;;22.50;12.70;;;;;19.60;99986.00;;;;5022959;28;20236;-72
2022/04/23 11:13:26;;;;;;;23.67;13.47;;;;;18.90;99988.00;;;;5023630;28;20229;-71
2022/04/23 11:16:16;;;;;;;24.30;12.10;;;;;19.10;99993.00;;;;5027667;28;20253;-71
2022/04/23 11:19:03;;;;;;;22.33;13.03;;;;;19.30;99986.00;;;;5012356;28;20717;-70
2022/04/23 11:21:49;;;;;;;27.07;13.60;;;;;19.60;99985.00;;;;5047173;28;20334;-70
2022/04/23 11:24:37;;;;;;;23.00;13.77;;;;;20.00;99987.00;;;;5047154;28;20228;-71
2022/04/23 11:27:25;;;;;;;23.50;12.77;;;;;20.20;99981.00;;;;5034646;28;20342;-68
2022/04/23 11:30:12;;;;;;;22.03;13.00;;;;;20.00;99991.00;;;;5027298;28;20312;-71
2022/04/23 11:33:12;;;;;;;21.00;12.17;;;;;19.80;99978.00;;;;5027194;28;20233;-71
2022/04/23 11:36:00;;;;;;;22.07;12.13;;;;;19.90;99979.00;;;;5027140;28;20238;-70
2022/04/23 11:38:46;;;;;;;22.83;12.53;;;;;19.90;99980.00;;;;5035501;28;20831;-71
2022/04/23 11:41:38;;;;;;;24.10;13.13;;;;;20.10;99986.00;;;;5046661;28;20232;-71
2022/04/23 11:44:45;;;;;;;19.80;11.53;;;;;20.50;99980.00;;;;5031177;28;20376;-72
2022/04/23 11:47:33;;;;;;;20.43;12.50;;;;;20.40;99985.00;;;;5020539;28;20338;-72
2022/04/23 11:50:21;;;;;;;21.97;12.43;;;;;20.30;99968.00;;;;5025517;28;20253;-71
2022/04/23 11:53:09;;;;;;;20.83;12.07;;;;;20.60;99968.00;;;;5026471;28;20237;-70
2022/04/23 11:55:55;;;;;;;20.73;12.40;;;;;20.70;99972.00;;;;5035649;28;20234;-72
2022/04/23 11:58:43;;;;;;;20.90;12.77;;;;;21.00;99966.00;;;;5026747;28;20234;-72
2022/04/23 12:01:29;;;;;;;22.17;13.20;;;;;21.00;99973.00;;;;5037082;28;20229;-72
2022/04/23 12:04:16;;;;;;;21.97;13.63;;;;;20.60;99974.00;;;;5025169;28;20240;-71
2022/04/23 12:07:03;;;;;;;21.73;13.63;;;;;20.70;99983.00;;;;5019405;28;20295;-68
2022/04/23 12:09:51;;;;;;;27.50;12.63;;;;;21.10;99983.00;;;;5034861;28;20304;-71
2022/04/23 12:12:37;;;;;;;23.90;13.20;;;;;20.80;99969.00;;;;5046669;28;20265;-71
2022/04/23 12:15:25;;;;;;;20.73;12.10;;;;;20.30;99958.00;;;;5038647;28;20619;-69
2022/04/23 12:18:19;;;;;;;21.37;12.43;;;;;20.00;99964.00;;;;5029787;28;20781;-71
2022/04/23 12:21:08;;;;;;;23.80;12.27;;;;;20.30;99968.00;;;;5026600;28;20276;-71
2022/04/23 12:23:55;;;;;;;20.53;12.00;;;;;20.60;99959.00;;;;5026224;28;20235;-71
2022/04/23 12:26:41;;;;;;;20.20;11.43;;;;;20.70;99963.00;;;;5040860;28;20238;-71
2022/04/23 12:41:57;;;;;;;18.50;11.13;;;;;21.20;99949.00;;;;5025934;28;20261;-71
2022/04/23 12:44:46;;;;;;;16.77;10.80;;;;;21.00;99957.00;;;;5025885;28;20296;-72
2022/04/23 12:47:34;;;;;;;19.60;9.97;;;;;20.80;99946.00;;;;5025513;28;20230;-68
2022/04/23 12:50:27;;;;;;;19.20;11.67;;;;;20.70;99934.00;;;;5031642;28;20610;-71
2022/04/23 12:53:31;;;;;;;17.43;10.53;;;;;20.40;99942.00;;;;5039604;28;20230;-71
2022/04/23 12:56:19;;;;;;;17.97;10.80;;;;;20.40;99942.00;;;;5019996;28;20233;-70
2022/04/23 12:59:05;;;;;;;19.70;10.33;;;;;20.50;99931.00;;;;5020589;28;20296;-71
2022/04/23 13:01:55;;;;;;;18.80;10.47;;;;;20.40;99932.00;;;;5030130;28;20292;-70
2022/04/23 13:04:43;;;;;;;18.17;10.07;;;;;20.50;99926.00;;;;5020975;28;20242;-70
2022/04/23 13:10:33;;;;;;;17.30;11.00;;;;;21.10;99930.00;;;;5024812;28;20261;-71
2022/04/23 13:13:19;;;;;;;17.30;10.27;;;;;20.90;99908.00;;;;5025339;28;20234;-72
2022/04/23 13:16:06;;;;;;;16.10;10.03;;;;;20.60;99918.00;;;;5025314;28;20260;-71
2022/04/23 13:18:55;;;;;;;16.70;9.60;;;;;20.20;99900.00;;;;5032704;28;20599;-71
2022/04/23 13:21:43;;;;;;;15.00;9.80;;;;;20.10;99911.00;;;;5025159;28;20914;-71
2022/04/23 13:24:29;;;;;;;17.27;10.10;;;;;19.80;99910.00;;;;5024879;28;20245;-71
2022/04/23 13:27:16;;;;;;;16.20;10.17;;;;;19.80;99892.00;;;;5030352;28;20702;-71
2022/04/23 13:30:04;;;;;;;18.30;10.17;;;;;19.80;99904.00;;;;5024791;28;20249;-70
2022/04/23 13:32:50;;;;;;;17.27;9.63;;;;;19.50;99910.00;;;;5024824;28;20849;-72
2022/04/23 13:35:37;;;;;;;15.10;9.03;;;;;19.60;99909.00;;;;5024951;28;20367;-71
2022/04/23 13:38:25;;;;;;;14.20;9.53;;;;;19.50;99904.00;;;;5019091;28;20237;-71
2022/04/23 13:41:13;;;;;;;15.60;9.47;;;;;19.90;99914.00;;;;5027465;28;20225;-72
2022/04/23 13:44:02;;;;;;;17.73;10.33;;;;;20.20;99905.00;;;;5028557;28;20236;-71
2022/04/23 13:46:49;;;;;;;18.10;10.20;;;;;20.50;99910.00;;;;5044177;28;20224;-71
2022/04/23 13:49:35;;;;;;;14.33;9.23;;;;;20.40;99900.00;;;;5036572;28;20951;-72
2022/04/23 13:52:22;;;;;;;17.10;9.77;;;;;20.00;99912.00;;;;5024736;28;20229;-69
2022/04/23 13:55:10;;;;;;;16.83;10.00;;;;;20.00;99909.00;;;;5024258;28;20241;-72
2022/04/23 13:57:57;;;;;;;14.63;9.80;;;;;20.00;99889.00;;;;5024030;28;20224;-69
2022/04/23 14:00:43;;;;;;;14.77;9.20;;;;;20.80;99895.00;;;;5033157;28;20228;-70
2022/04/23 14:12:48;;;;;;;14.97;9.10;;;;;21.30;99877.00;;;;5024709;28;20362;-72
2022/04/23 14:15:34;;;;;;;14.10;8.70;;;;;21.20;99890.00;;;;5018749;28;20245;-72
2022/04/23 14:18:21;;;;;;;15.77;9.43;;;;;20.90;99877.00;;;;5025277;28;20616;-71